Time;durP1;ratioP1;P1;durP2;ratioP2;P2;SDS_P1;SDS_P2;PMS_P1;PMS_P2;Temp;Humidity;BMP_temperature;BMP_pressure;BME280_temperature;BME280_humidity;BME280_pressure;Samples;Min_cycle;Max_cycle;Signal;HPM_P1;HPM_P2
2023/04/22 00:00:22;;;;;;;6.57;3.42;;;;;;;;;;5115041;27;20054;-68
2023/04/22 00:02:49;;;;;;;7.03;4.28;;;;;;;;;;5110431;27;20048;-68
2023/04/22 00:05:18;;;;;;;5.13;3.72;;;;;;;;;;5122461;27;20057;-68
2023/04/22 00:07:47;;;;;;;6.15;3.53;;;;;;;;;;5127026;27;20440;-68
2023/04/22 00:10:14;;;;;;;4.40;3.20;;;;;;;;;;5128031;27;20054;-68
2023/04/22 00:12:41;;;;;;;4.65;3.05;;;;;;;;;;5127842;27;20134;-68
2023/04/22 00:15:09;;;;;;;4.32;2.72;;;;;;;;;;5111489;27;20051;-68
2023/04/22 00:17:37;;;;;;;3.85;2.30;;;;;;;;;;5109365;27;20127;-68
2023/04/22 00:20:06;;;;;;;2.67;2.00;;;;;;;;;;5129966;27;20169;-68
2023/04/22 00:22:33;;;;;;;4.13;2.50;;;;;;;;;;5128640;27;20047;-68
2023/04/22 00:25:02;;;;;;;7.05;2.72;;;;;;;;;;5129814;27;20055;-68
2023/04/22 00:27:29;;;;;;;3.00;2.00;;;;;;;;;;5130627;27;20051;-68
2023/04/22 00:29:57;;;;;;;3.50;2.22;;;;;;;;;;5129625;27;20170;-68
2023/04/22 00:32:25;;;;;;;3.78;1.60;;;;;;;;;;5109124;28;20054;-68
2023/04/22 00:34:52;;;;;;;4.03;1.77;;;;;;;;;;5128840;27;20047;-68
2023/04/22 00:37:19;;;;;;;3.22;1.60;;;;;;;;;;5109561;27;20046;-68
2023/04/22 00:39:46;;;;;;;4.93;1.98;;;;;;;;;;5109662;27;20144;-68
2023/04/22 00:42:15;;;;;;;3.25;1.77;;;;;;;;;;5130332;27;20554;-68
2023/04/22 00:44:42;;;;;;;2.67;1.85;;;;;;;;;;5110392;27;20055;-68
2023/04/22 00:47:10;;;;;;;2.70;1.80;;;;;;;;;;5107702;28;20050;-68
2023/04/22 00:49:37;;;;;;;2.90;1.60;;;;;;;;;;5126827;27;20587;-68
2023/04/22 00:52:05;;;;;;;2.60;1.83;;;;;;;;;;5099240;28;20052;-68
2023/04/22 00:54:34;;;;;;;3.35;1.17;;;;;;;;;;5125977;27;20053;-69
2023/04/22 00:57:01;;;;;;;1.55;1.17;;;;;;;;;;5129155;27;20050;-68
2023/04/22 00:59:30;;;;;;;1.30;0.93;;;;;;;;;;5128062;27;20151;-68
2023/04/22 01:01:58;;;;;;;1.92;1.40;;;;;;;;;;5107932;27;20062;-68
2023/04/22 01:04:25;;;;;;;1.90;1.30;;;;;;;;;;5126820;27;20055;-68
2023/04/22 01:06:53;;;;;;;1.92;1.27;;;;;;;;;;5114932;27;20056;-68
2023/04/22 01:09:20;;;;;;;2.00;1.30;;;;;;;;;;5108668;27;20108;-68
2023/04/22 01:11:48;;;;;;;1.92;1.35;;;;;;;;;;5104978;27;20178;-67
2023/04/22 01:14:15;;;;;;;2.28;1.40;;;;;;;;;;5106905;28;20405;-68
2023/04/22 01:16:44;;;;;;;3.13;1.58;;;;;;;;;;5115161;27;20387;-68
2023/04/22 01:19:11;;;;;;;2.10;1.38;;;;;;;;;;5104491;27;20050;-68
2023/04/22 01:21:39;;;;;;;2.35;1.50;;;;;;;;;;5109053;28;20434;-68
2023/04/22 01:24:09;;;;;;;2.38;1.60;;;;;;;;;;5106158;27;20055;-68
2023/04/22 01:26:36;;;;;;;2.70;1.50;;;;;;;;;;5098550;27;20108;-68
2023/04/22 01:29:04;;;;;;;2.65;1.88;;;;;;;;;;5108515;27;20047;-68
2023/04/22 01:31:32;;;;;;;2.28;1.63;;;;;;;;;;5119635;27;20051;-67
2023/04/22 01:33:59;;;;;;;2.80;1.90;;;;;;;;;;5099984;27;20406;-68
2023/04/22 01:36:27;;;;;;;3.67;1.70;;;;;;;;;;5103723;27;20442;-68
2023/04/22 01:38:54;;;;;;;2.35;1.67;;;;;;;;;;5114407;27;20096;-68
2023/04/22 01:41:23;;;;;;;3.00;1.98;;;;;;;;;;5119687;27;20047;-68
2023/04/22 01:43:51;;;;;;;3.33;2.25;;;;;;;;;;5112320;27;20051;-68
2023/04/22 01:46:18;;;;;;;2.58;2.05;;;;;;;;;;5116689;27;20137;-67
2023/04/22 01:48:50;;;;;;;3.35;2.10;;;;;;;;;;5116235;27;20055;-67
2023/04/22 01:51:19;;;;;;;3.97;2.28;;;;;;;;;;5104174;27;20040;-68
2023/04/22 01:53:46;;;;;;;3.53;2.28;;;;;;;;;;5105309;28;20514;-68
2023/04/22 01:56:13;;;;;;;3.67;2.33;;;;;;;;;;5118135;28;20052;-68
2023/04/22 01:58:42;;;;;;;3.45;2.08;;;;;;;;;;5111383;28;20046;-68
2023/04/22 02:01:10;;;;;;;5.07;2.50;;;;;;;;;;5113634;28;20505;-68
2023/04/22 02:03:37;;;;;;;3.42;2.30;;;;;;;;;;5106698;28;20055;-67
2023/04/22 02:06:05;;;;;;;3.95;2.22;;;;;;;;;;5112913;27;20067;-68
2023/04/22 02:08:32;;;;;;;3.88;2.35;;;;;;;;;;5127409;27;20096;-67
2023/04/22 02:11:00;;;;;;;4.43;2.55;;;;;;;;;;5128692;27;20055;-67
2023/04/22 02:13:27;;;;;;;3.13;2.33;;;;;;;;;;5127234;27;20134;-68
2023/04/22 02:15:56;;;;;;;3.10;2.17;;;;;;;;;;5129035;27;20047;-68
2023/04/22 02:18:23;;;;;;;4.03;2.20;;;;;;;;;;5103229;27;20043;-68
2023/04/22 02:20:50;;;;;;;4.03;2.20;;;;;;;;;;5126785;27;20039;-68
2023/04/22 02:23:17;;;;;;;3.15;2.10;;;;;;;;;;5127078;27;20051;-67
2023/04/22 02:25:49;;;;;;;3.85;2.38;;;;;;;;;;5110472;27;20070;-68
2023/04/22 02:28:17;;;;;;;3.60;2.28;;;;;;;;;;5127566;27;20051;-68
2023/04/22 02:30:44;;;;;;;3.50;2.40;;;;;;;;;;5126650;27;20074;-68
2023/04/22 02:33:12;;;;;;;4.15;2.50;;;;;;;;;;5117949;27;20409;-68
2023/04/22 02:35:40;;;;;;;3.00;1.90;;;;;;;;;;5126712;27;20410;-68
2023/04/22 02:38:07;;;;;;;3.53;2.35;;;;;;;;;;5108819;27;20387;-68
2023/04/22 02:40:34;;;;;;;3.83;2.03;;;;;;;;;;5112547;27;20055;-67
2023/04/22 02:43:02;;;;;;;7.90;1.70;;;;;;;;;;5128904;27;20495;-68
2023/04/22 02:45:29;;;;;;;1.90;1.25;;;;;;;;;;5132246;27;20054;-68
2023/04/22 02:47:56;;;;;;;2.05;1.30;;;;;;;;;;5128670;27;20050;-67
2023/04/22 02:50:25;;;;;;;2.03;1.33;;;;;;;;;;5127382;27;20051;-67
2023/04/22 02:52:52;;;;;;;2.17;1.73;;;;;;;;;;5127845;27;20050;-67
2023/04/22 02:55:20;;;;;;;3.30;1.95;;;;;;;;;;5109417;27;20059;-67
2023/04/22 02:57:48;;;;;;;2.58;1.83;;;;;;;;;;5127656;27;20047;-67
2023/04/22 03:00:15;;;;;;;2.15;1.50;;;;;;;;;;5127293;27;20418;-67
2023/04/22 03:02:42;;;;;;;2.00;1.55;;;;;;;;;;5113373;27;20128;-67
2023/04/22 03:05:10;;;;;;;4.15;1.67;;;;;;;;;;5128044;27;20243;-66
2023/04/22 03:07:39;;;;;;;2.67;1.60;;;;;;;;;;5111576;27;20058;-67
2023/04/22 03:10:07;;;;;;;3.58;1.73;;;;;;;;;;5109496;27;20431;-66
2023/04/22 03:12:34;;;;;;;2.50;1.55;;;;;;;;;;5131784;27;20043;-67
2023/04/22 03:15:01;;;;;;;3.15;1.83;;;;;;;;;;5127995;27;20410;-67
2023/04/22 03:17:28;;;;;;;2.35;1.55;;;;;;;;;;5127273;27;20047;-67
2023/04/22 03:19:56;;;;;;;3.05;1.90;;;;;;;;;;5128138;27;20056;-66
2023/04/22 03:22:23;;;;;;;2.40;1.67;;;;;;;;;;5132327;27;20079;-67
2023/04/22 03:24:51;;;;;;;2.55;1.95;;;;;;;;;;5109387;27;20063;-67
2023/04/22 03:27:19;;;;;;;3.30;1.92;;;;;;;;;;5113930;27;20054;-67
2023/04/22 03:29:46;;;;;;;2.28;1.60;;;;;;;;;;5128541;27;20047;-67
2023/04/22 03:32:13;;;;;;;3.75;1.77;;;;;;;;;;5131175;27;20055;-67
2023/04/22 03:34:41;;;;;;;2.28;1.70;;;;;;;;;;5127699;27;20047;-66
2023/04/22 03:37:08;;;;;;;1.70;1.20;;;;;;;;;;5110632;27;20581;-67
2023/04/22 03:39:35;;;;;;;2.08;1.48;;;;;;;;;;5129390;27;20046;-67
2023/04/22 03:42:04;;;;;;;2.33;1.60;;;;;;;;;;5123267;27;20135;-67
2023/04/22 03:44:31;;;;;;;2.17;1.52;;;;;;;;;;5128024;27;20043;-67
2023/04/22 03:46:58;;;;;;;3.45;1.73;;;;;;;;;;5111382;27;20042;-67
2023/04/22 03:49:25;;;;;;;2.35;1.70;;;;;;;;;;5129747;27;20476;-67
2023/04/22 03:51:53;;;;;;;2.20;1.30;;;;;;;;;;5130958;27;20046;-66
2023/04/22 03:54:20;;;;;;;2.47;1.67;;;;;;;;;;5129936;27;20039;-67
2023/04/22 03:56:47;;;;;;;2.72;1.50;;;;;;;;;;5110620;27;20054;-67
2023/04/22 03:59:16;;;;;;;1.90;1.38;;;;;;;;;;5130220;27;20036;-67
2023/04/22 04:01:43;;;;;;;2.83;1.80;;;;;;;;;;5131137;27;20043;-66
2023/04/22 04:04:10;;;;;;;3.03;1.85;;;;;;;;;;5128890;27;20062;-67
2023/04/22 04:06:38;;;;;;;3.28;2.10;;;;;;;;;;5125646;27;20055;-67
2023/04/22 04:09:05;;;;;;;3.92;2.17;;;;;;;;;;5108428;28;20089;-66
2023/04/22 04:11:32;;;;;;;2.90;2.00;;;;;;;;;;5107355;28;20447;-66
2023/04/22 04:13:59;;;;;;;2.60;1.63;;;;;;;;;;5108255;28;20062;-67
2023/04/22 04:16:28;;;;;;;3.38;2.28;;;;;;;;;;5109398;28;20059;-69
2023/04/22 04:18:55;;;;;;;3.70;2.00;;;;;;;;;;5107115;28;20044;-67
2023/04/22 04:21:23;;;;;;;2.72;1.92;;;;;;;;;;5109615;27;20055;-66
2023/04/22 04:23:50;;;;;;;2.72;1.67;;;;;;;;;;5109139;28;20055;-67
2023/04/22 04:26:17;;;;;;;2.20;1.70;;;;;;;;;;5106828;27;20387;-67
2023/04/22 04:28:44;;;;;;;2.33;1.70;;;;;;;;;;5109566;27;20410;-66
2023/04/22 04:31:11;;;;;;;2.55;1.70;;;;;;;;;;5104992;28;20048;-67
2023/04/22 04:33:40;;;;;;;2.97;1.80;;;;;;;;;;5108675;28;20506;-67
2023/04/22 04:36:09;;;;;;;1.60;1.20;;;;;;;;;;5101548;27;20070;-66
2023/04/22 04:38:36;;;;;;;2.08;1.38;;;;;;;;;;5109369;28;20071;-66
2023/04/22 04:41:03;;;;;;;2.92;1.80;;;;;;;;;;5100744;28;20044;-67
2023/04/22 04:43:31;;;;;;;2.83;1.90;;;;;;;;;;5104361;27;20044;-66
2023/04/22 04:45:58;;;;;;;2.58;1.90;;;;;;;;;;5107156;28;20810;-66
2023/04/22 04:48:25;;;;;;;3.60;1.80;;;;;;;;;;5107618;28;20439;-67
2023/04/22 04:50:55;;;;;;;2.08;1.42;;;;;;;;;;5101028;28;20052;-66
2023/04/22 04:53:22;;;;;;;2.80;1.60;;;;;;;;;;5108012;28;20055;-67
2023/04/22 04:55:49;;;;;;;2.70;1.73;;;;;;;;;;5105704;28;20058;-66
2023/04/22 04:58:17;;;;;;;3.33;1.75;;;;;;;;;;5109594;28;20125;-67
2023/04/22 05:00:44;;;;;;;3.38;1.67;;;;;;;;;;5107905;28;20505;-67
2023/04/22 05:03:11;;;;;;;2.80;1.70;;;;;;;;;;5108997;28;20044;-67
2023/04/22 05:05:39;;;;;;;2.03;1.42;;;;;;;;;;5104580;28;20066;-67
2023/04/22 05:08:07;;;;;;;4.13;2.42;;;;;;;;;;5126248;27;20432;-68
2023/04/22 05:10:34;;;;;;;5.70;2.72;;;;;;;;;;5121978;27;20519;-67
2023/04/22 05:13:02;;;;;;;5.13;2.65;;;;;;;;;;5107354;27;20051;-66
2023/04/22 05:15:29;;;;;;;5.03;3.15;;;;;;;;;;5124242;27;20104;-67
2023/04/22 05:17:56;;;;;;;4.90;3.22;;;;;;;;;;5129165;27;20053;-67
2023/04/22 05:20:24;;;;;;;5.72;3.47;;;;;;;;;;5128873;27;20079;-66
2023/04/22 05:22:51;;;;;;;4.22;2.90;;;;;;;;;;5126761;27;20128;-67
2023/04/22 05:25:20;;;;;;;4.28;2.80;;;;;;;;;;5129273;27;20054;-66
2023/04/22 05:27:47;;;;;;;4.50;2.75;;;;;;;;;;5108310;27;20059;-67
2023/04/22 05:30:14;;;;;;;5.45;3.38;;;;;;;;;;5126980;27;20058;-67
2023/04/22 05:32:42;;;;;;;3.85;2.80;;;;;;;;;;5127502;27;20490;-67
2023/04/22 05:35:09;;;;;;;6.32;3.53;;;;;;;;;;5126989;27;20579;-66
2023/04/22 05:37:37;;;;;;;4.93;3.17;;;;;;;;;;5105147;27;20070;-67
2023/04/22 05:40:05;;;;;;;6.45;3.92;;;;;;;;;;5124195;27;20086;-67
2023/04/22 05:42:34;;;;;;;6.07;3.70;;;;;;;;;;5120837;27;20057;-67
2023/04/22 05:45:01;;;;;;;6.82;4.20;;;;;;;;;;5125178;27;20057;-67
2023/04/22 05:47:29;;;;;;;6.18;3.60;;;;;;;;;;5126074;27;20125;-67
2023/04/22 05:49:56;;;;;;;5.25;3.75;;;;;;;;;;5127222;27;21353;-67
2023/04/22 05:52:23;;;;;;;6.75;4.25;;;;;;;;;;5109879;27;20062;-67
2023/04/22 05:54:50;;;;;;;9.32;4.10;;;;;;;;;;5108192;28;20086;-67
2023/04/22 05:57:18;;;;;;;7.72;4.28;;;;;;;;;;5125700;27;20061;-66
2023/04/22 05:59:46;;;;;;;7.05;4.28;;;;;;;;;;5127714;27;20385;-67
2023/04/22 06:02:14;;;;;;;7.93;4.40;;;;;;;;;;5127771;27;20131;-67
2023/04/22 06:04:41;;;;;;;6.38;3.83;;;;;;;;;;5107338;27;21022;-67
2023/04/22 06:07:08;;;;;;;8.35;3.92;;;;;;;;;;5126072;27;20065;-67
2023/04/22 06:09:36;;;;;;;6.38;4.13;;;;;;;;;;5133312;27;20043;-67
2023/04/22 06:12:03;;;;;;;5.63;3.55;;;;;;;;;;5132117;27;20074;-67
2023/04/22 06:14:30;;;;;;;5.53;3.53;;;;;;;;;;5132956;27;20435;-67
2023/04/22 06:16:59;;;;;;;7.00;4.00;;;;;;;;;;5131940;27;20500;-67
2023/04/22 06:19:26;;;;;;;6.30;3.97;;;;;;;;;;5131725;27;20050;-67
2023/04/22 06:21:53;;;;;;;5.38;3.85;;;;;;;;;;5132256;27;20050;-67
2023/04/22 06:24:20;;;;;;;5.88;3.35;;;;;;;;;;5133099;27;20485;-67
2023/04/22 06:26:48;;;;;;;6.13;3.70;;;;;;;;;;5131996;27;20610;-67
2023/04/22 06:29:15;;;;;;;6.60;4.20;;;;;;;;;;5132986;27;20794;-67
2023/04/22 06:31:43;;;;;;;6.30;3.70;;;;;;;;;;5130300;27;20540;-67
2023/04/22 06:34:11;;;;;;;5.63;3.67;;;;;;;;;;5131291;27;20130;-67
2023/04/22 06:36:39;;;;;;;5.85;3.65;;;;;;;;;;5131306;27;20047;-67
2023/04/22 06:39:06;;;;;;;5.78;3.78;;;;;;;;;;5130300;27;20367;-67
2023/04/22 06:41:34;;;;;;;6.25;3.92;;;;;;;;;;5131184;27;20049;-67
2023/04/22 06:44:01;;;;;;;6.78;4.18;;;;;;;;;;5130448;27;20053;-67
2023/04/22 06:46:28;;;;;;;6.60;4.07;;;;;;;;;;5132256;27;20054;-67
2023/04/22 06:48:55;;;;;;;5.32;3.47;;;;;;;;;;5110506;27;20508;-67
2023/04/22 06:51:24;;;;;;;5.80;3.25;;;;;;;;;;5130694;27;20058;-67
2023/04/22 06:53:51;;;;;;;8.32;4.35;;;;;;;;;;5130715;27;20054;-67
2023/04/22 06:56:18;;;;;;;6.03;4.00;;;;;;;;;;5131216;27;20482;-67
2023/04/22 06:58:46;;;;;;;6.93;4.13;;;;;;;;;;5124762;27;20043;-67
2023/04/22 07:01:13;;;;;;;6.50;4.07;;;;;;;;;;5110845;27;20636;-68
2023/04/22 07:03:40;;;;;;;6.50;4.18;;;;;;;;;;5128826;27;20039;-68
2023/04/22 07:06:08;;;;;;;5.82;3.78;;;;;;;;;;5130170;27;20051;-68
2023/04/22 07:08:36;;;;;;;7.28;3.70;;;;;;;;;;5128362;27;20054;-68
2023/04/22 07:11:04;;;;;;;6.55;4.13;;;;;;;;;;5131965;27;20136;-68
2023/04/22 07:13:32;;;;;;;6.18;3.80;;;;;;;;;;5130424;27;20047;-68
2023/04/22 07:16:00;;;;;;;6.15;3.85;;;;;;;;;;5131225;27;20054;-68
2023/04/22 07:18:29;;;;;;;5.82;3.85;;;;;;;;;;5108236;27;20445;-68
2023/04/22 07:20:56;;;;;;;5.97;3.88;;;;;;;;;;5129530;27;20512;-68
2023/04/22 07:23:24;;;;;;;7.47;4.00;;;;;;;;;;5130600;27;20533;-68
2023/04/22 07:25:53;;;;;;;5.90;3.75;;;;;;;;;;5116098;27;20051;-67
2023/04/22 07:28:20;;;;;;;5.80;3.50;;;;;;;;;;5129063;27;20043;-68
2023/04/22 07:30:48;;;;;;;5.93;3.70;;;;;;;;;;5132134;27;20100;-68
2023/04/22 07:33:15;;;;;;;6.20;3.90;;;;;;;;;;5128873;27;20131;-68
2023/04/22 07:35:42;;;;;;;5.95;3.63;;;;;;;;;;5130208;27;20043;-67
2023/04/22 07:38:10;;;;;;;6.68;4.03;;;;;;;;;;5128746;27;20545;-68
2023/04/22 07:40:37;;;;;;;6.30;3.85;;;;;;;;;;5126632;27;20043;-68
2023/04/22 07:43:06;;;;;;;5.78;3.38;;;;;;;;;;5126984;27;20061;-68
2023/04/22 07:45:33;;;;;;;7.07;3.95;;;;;;;;;;5130383;27;20057;-68
2023/04/22 07:48:00;;;;;;;5.28;3.83;;;;;;;;;;5129211;27;20069;-68
2023/04/22 07:50:27;;;;;;;5.93;4.05;;;;;;;;;;5108857;28;20044;-68
2023/04/22 07:52:55;;;;;;;6.88;4.40;;;;;;;;;;5127995;27;20051;-68
2023/04/22 07:55:22;;;;;;;7.28;3.92;;;;;;;;;;5130114;27;20046;-68
2023/04/22 07:57:49;;;;;;;7.95;4.05;;;;;;;;;;5129048;27;20054;-68
2023/04/22 08:00:18;;;;;;;6.60;3.97;;;;;;;;;;5130777;27;20406;-68
2023/04/22 08:02:46;;;;;;;5.82;3.65;;;;;;;;;;5129021;27;20550;-68
2023/04/22 08:05:13;;;;;;;7.30;4.10;;;;;;;;;;5129351;27;20051;-69
2023/04/22 08:07:40;;;;;;;5.75;3.85;;;;;;;;;;5129919;27;20051;-68
2023/04/22 08:10:08;;;;;;;6.00;3.70;;;;;;;;;;5127150;27;20438;-68
2023/04/22 08:12:35;;;;;;;7.38;4.75;;;;;;;;;;5128941;27;20066;-68
2023/04/22 08:15:03;;;;;;;7.32;5.07;;;;;;;;;;5127647;27;20125;-68
2023/04/22 08:17:31;;;;;;;9.07;4.60;;;;;;;;;;5112399;27;20047;-68
2023/04/22 08:19:59;;;;;;;7.63;4.38;;;;;;;;;;5128008;27;20537;-69
2023/04/22 08:22:26;;;;;;;6.53;3.90;;;;;;;;;;5130624;27;20502;-68
2023/04/22 08:24:53;;;;;;;6.78;4.28;;;;;;;;;;5127045;27;20077;-68
2023/04/22 08:27:21;;;;;;;6.93;4.15;;;;;;;;;;5131106;27;20051;-68
2023/04/22 08:29:49;;;;;;;8.18;4.10;;;;;;;;;;5110520;27;20039;-68
2023/04/22 08:32:18;;;;;;;5.63;3.70;;;;;;;;;;5128137;27;20050;-69
2023/04/22 08:34:47;;;;;;;7.03;4.40;;;;;;;;;;5127793;27;20474;-68
2023/04/22 08:37:14;;;;;;;6.45;3.85;;;;;;;;;;5129993;27;20063;-68
2023/04/22 08:39:41;;;;;;;6.55;4.30;;;;;;;;;;5128787;27;20039;-68
2023/04/22 08:42:09;;;;;;;5.78;3.85;;;;;;;;;;5128207;27;20062;-68
2023/04/22 08:44:37;;;;;;;6.63;3.88;;;;;;;;;;5124277;27;20047;-68
2023/04/22 08:47:05;;;;;;;6.28;3.60;;;;;;;;;;5111651;27;20050;-69
2023/04/22 08:49:32;;;;;;;7.28;3.85;;;;;;;;;;5110012;27;20047;-69
2023/04/22 08:52:00;;;;;;;6.43;4.05;;;;;;;;;;5123439;27;20066;-69
2023/04/22 08:54:28;;;;;;;6.47;3.95;;;;;;;;;;5127776;27;20051;-69
2023/04/22 08:56:55;;;;;;;5.78;3.65;;;;;;;;;;5103387;27;20043;-67
2023/04/22 08:59:23;;;;;;;7.30;3.67;;;;;;;;;;5127951;27;20051;-69
2023/04/22 09:01:52;;;;;;;7.13;4.00;;;;;;;;;;5105278;27;20055;-67
2023/04/22 09:04:20;;;;;;;5.93;3.67;;;;;;;;;;5120823;27;20046;-67
2023/04/22 09:06:47;;;;;;;5.45;3.78;;;;;;;;;;5126110;27;20051;-67
2023/04/22 09:09:16;;;;;;;5.68;3.72;;;;;;;;;;5123144;27;20115;-68
2023/04/22 09:11:43;;;;;;;6.28;3.80;;;;;;;;;;5110924;27;20055;-68
2023/04/22 09:14:10;;;;;;;5.50;3.63;;;;;;;;;;5129012;27;20051;-69
2023/04/22 09:16:42;;;;;;;5.70;3.80;;;;;;;;;;5127714;27;20501;-69
2023/04/22 09:19:11;;;;;;;5.63;3.75;;;;;;;;;;5107096;27;20079;-67
2023/04/22 09:21:39;;;;;;;5.30;3.70;;;;;;;;;;5127680;27;20043;-67
2023/04/22 09:24:08;;;;;;;6.18;3.88;;;;;;;;;;5129137;27;20068;-68
2023/04/22 09:26:39;;;;;;;5.60;3.55;;;;;;;;;;5128377;27;20055;-67
2023/04/22 09:29:08;;;;;;;6.22;3.85;;;;;;;;;;5128686;27;20122;-68
2023/04/22 09:31:36;;;;;;;5.57;3.72;;;;;;;;;;5128597;27;20050;-68
2023/04/22 09:34:04;;;;;;;5.38;3.45;;;;;;;;;;5128094;27;20058;-67
2023/04/22 09:36:36;;;;;;;5.35;3.55;;;;;;;;;;5108240;27;20046;-67
2023/04/22 09:39:05;;;;;;;6.10;3.53;;;;;;;;;;5127989;27;20070;-67
2023/04/22 09:41:33;;;;;;;5.57;3.80;;;;;;;;;;5103896;27;20049;-68
2023/04/22 09:44:02;;;;;;;6.25;3.45;;;;;;;;;;5125547;27;20646;-68
2023/04/22 09:46:30;;;;;;;5.78;3.63;;;;;;;;;;5127702;27;20043;-68
2023/04/22 09:48:59;;;;;;;8.02;3.50;;;;;;;;;;5110475;28;20054;-68
2023/04/22 09:51:27;;;;;;;6.45;4.28;;;;;;;;;;5126887;27;20406;-68
2023/04/22 09:54:03;;;;;;;5.75;3.60;;;;;;;;;;5126448;27;20047;-68
2023/04/22 09:56:44;;;;;;;5.45;3.60;;;;;;;;;;5109207;28;20582;-68
2023/04/22 09:59:13;;;;;;;6.45;3.80;;;;;;;;;;5107797;27;20166;-69
2023/04/22 10:01:41;;;;;;;5.43;3.75;;;;;;;;;;5128470;27;20047;-68
2023/04/22 10:04:10;;;;;;;5.47;3.70;;;;;;;;;;5126643;27;20525;-68
2023/04/22 10:06:37;;;;;;;5.25;3.85;;;;;;;;;;5128426;27;20510;-69
2023/04/22 10:09:05;;;;;;;5.07;3.72;;;;;;;;;;5126988;27;20054;-68
2023/04/22 10:11:33;;;;;;;5.55;3.40;;;;;;;;;;5125911;27;20548;-68
2023/04/22 10:14:01;;;;;;;5.90;3.72;;;;;;;;;;5108763;28;20525;-69
2023/04/22 10:16:32;;;;;;;6.25;3.92;;;;;;;;;;5127855;27;20055;-69
2023/04/22 10:19:00;;;;;;;7.70;4.20;;;;;;;;;;5108497;28;20533;-69
2023/04/22 10:21:27;;;;;;;5.85;3.67;;;;;;;;;;5106489;27;20042;-69
2023/04/22 10:23:55;;;;;;;6.03;3.83;;;;;;;;;;5128267;27;20054;-69
2023/04/22 10:26:41;;;;;;;6.82;4.07;;;;;;;;;;5110502;27;20054;-69
2023/04/22 10:29:09;;;;;;;7.38;4.25;;;;;;;;;;5108922;28;20061;-69
2023/04/22 10:31:39;;;;;;;7.75;4.45;;;;;;;;;;5126559;27;20043;-69
2023/04/22 10:34:11;;;;;;;6.70;4.10;;;;;;;;;;5109043;27;20047;-69
2023/04/22 10:36:53;;;;;;;5.47;4.15;;;;;;;;;;5108976;28;20589;-69
2023/04/22 10:39:21;;;;;;;6.65;4.25;;;;;;;;;;5127287;27;20051;-69
2023/04/22 10:41:52;;;;;;;6.07;4.43;;;;;;;;;;5123141;28;20047;-69
2023/04/22 10:44:20;;;;;;;7.15;4.63;;;;;;;;;;5106300;27;20055;-69
2023/04/22 10:47:01;;;;;;;6.05;4.05;;;;;;;;;;5127362;28;20051;-69
2023/04/22 10:49:33;;;;;;;7.22;4.40;;;;;;;;;;5127447;27;20043;-69
2023/04/22 10:52:02;;;;;;;6.40;3.92;;;;;;;;;;5127515;27;20497;-69
2023/04/22 10:54:48;;;;;;;5.63;3.95;;;;;;;;;;5128212;27;20047;-69
2023/04/22 10:57:21;;;;;;;5.20;3.83;;;;;;;;;;5130404;27;20047;-69
2023/04/22 10:59:49;;;;;;;7.15;4.18;;;;;;;;;;5109750;28;20498;-69
2023/04/22 11:02:19;;;;;;;6.25;4.15;;;;;;;;;;5108516;27;20059;-69
2023/04/22 11:04:47;;;;;;;6.57;4.03;;;;;;;;;;5128645;27;20043;-69
2023/04/22 11:07:15;;;;;;;4.70;3.20;;;;;;;;;;5124071;27;20140;-69
2023/04/22 11:09:44;;;;;;;4.35;3.28;;;;;;;;;;5112412;27;20507;-69
2023/04/22 11:12:30;;;;;;;5.32;3.22;;;;;;;;;;5111252;27;20060;-69
2023/04/22 11:14:57;;;;;;;5.07;3.40;;;;;;;;;;5106826;27;20042;-69
2023/04/22 11:17:26;;;;;;;4.63;3.40;;;;;;;;;;5105562;27;20067;-69
2023/04/22 11:19:55;;;;;;;5.28;3.42;;;;;;;;;;5115951;27;20110;-69
2023/04/22 11:22:24;;;;;;;5.78;3.72;;;;;;;;;;5116316;27;20040;-69
2023/04/22 11:24:54;;;;;;;4.45;3.33;;;;;;;;;;5111750;27;20047;-69
2023/04/22 11:27:25;;;;;;;5.28;3.40;;;;;;;;;;5104069;27;20487;-69
2023/04/22 11:30:02;;;;;;;5.65;3.80;;;;;;;;;;5115452;27;20040;-69
2023/04/22 11:32:30;;;;;;;6.60;4.43;;;;;;;;;;5104195;27;20224;-69
2023/04/22 11:34:58;;;;;;;6.82;4.07;;;;;;;;;;5112136;27;20043;-69
2023/04/22 11:37:26;;;;;;;7.35;3.83;;;;;;;;;;5109767;27;20043;-70
2023/04/22 11:39:53;;;;;;;5.72;3.70;;;;;;;;;;5111474;27;20491;-69
2023/04/22 11:42:22;;;;;;;4.60;3.33;;;;;;;;;;5105495;27;20040;-70
2023/04/22 11:44:49;;;;;;;5.32;3.55;;;;;;;;;;5114153;27;20054;-70
2023/04/22 11:47:18;;;;;;;5.85;4.00;;;;;;;;;;5120026;27;20048;-69
2023/04/22 11:49:57;;;;;;;5.18;3.78;;;;;;;;;;5107225;27;20079;-69
2023/04/22 11:52:25;;;;;;;4.75;3.40;;;;;;;;;;5112001;27;20490;-70
2023/04/22 11:54:52;;;;;;;4.75;3.55;;;;;;;;;;5112143;27;20525;-69
2023/04/22 11:57:20;;;;;;;4.50;3.42;;;;;;;;;;5108642;27;20075;-69
2023/04/22 11:59:58;;;;;;;5.60;3.60;;;;;;;;;;5116920;27;20069;-70
2023/04/22 12:02:25;;;;;;;6.38;4.07;;;;;;;;;;5106278;27;20052;-69
2023/04/22 12:04:53;;;;;;;5.25;3.20;;;;;;;;;;5101018;27;20050;-70
2023/04/22 12:07:21;;;;;;;5.30;3.28;;;;;;;;;;5117149;27;20069;-70
2023/04/22 12:09:49;;;;;;;3.83;2.95;;;;;;;;;;5104634;27;20131;-69
2023/04/22 12:12:17;;;;;;;4.82;3.47;;;;;;;;;;5111246;27;20077;-69
2023/04/22 12:14:46;;;;;;;5.18;3.40;;;;;;;;;;5125928;27;20054;-69
2023/04/22 12:17:15;;;;;;;3.97;3.10;;;;;;;;;;5114265;27;20119;-70
2023/04/22 12:19:47;;;;;;;7.15;3.67;;;;;;;;;;5127852;27;20078;-69
2023/04/22 12:22:25;;;;;;;4.90;3.78;;;;;;;;;;5109474;27;20054;-69
2023/04/22 12:24:52;;;;;;;5.00;3.25;;;;;;;;;;5110147;27;20051;-70
2023/04/22 12:27:20;;;;;;;4.30;3.10;;;;;;;;;;5112135;27;20551;-70
2023/04/22 12:29:55;;;;;;;4.72;3.60;;;;;;;;;;5109780;27;20085;-70
2023/04/22 12:32:22;;;;;;;5.93;3.72;;;;;;;;;;5129881;27;20090;-70
2023/04/22 12:34:49;;;;;;;5.28;3.53;;;;;;;;;;5106922;27;20087;-69
2023/04/22 12:37:17;;;;;;;5.90;3.60;;;;;;;;;;5128743;27;20054;-70
2023/04/22 12:39:46;;;;;;;7.28;3.83;;;;;;;;;;5125047;27;20131;-70
2023/04/22 12:42:13;;;;;;;5.70;3.70;;;;;;;;;;5125866;27;20490;-69
2023/04/22 12:44:42;;;;;;;5.15;3.47;;;;;;;;;;5123242;27;20524;-69
2023/04/22 12:47:09;;;;;;;6.15;3.75;;;;;;;;;;5109983;27;20089;-69
2023/04/22 12:49:38;;;;;;;7.15;4.78;;;;;;;;;;5128484;27;20049;-69
2023/04/22 12:52:05;;;;;;;6.65;4.38;;;;;;;;;;5128472;27;20043;-69
2023/04/22 12:54:32;;;;;;;6.53;4.47;;;;;;;;;;5127928;27;20054;-69
2023/04/22 12:57:02;;;;;;;5.93;4.47;;;;;;;;;;5129041;27;20544;-70
2023/04/22 12:59:29;;;;;;;7.05;4.68;;;;;;;;;;5128117;27;20047;-69
2023/04/22 13:01:56;;;;;;;6.72;5.00;;;;;;;;;;5129187;27;20047;-69
2023/04/22 13:04:23;;;;;;;6.80;4.22;;;;;;;;;;5127851;27;20051;-69
2023/04/22 13:06:55;;;;;;;7.18;4.82;;;;;;;;;;5127115;27;20039;-69
2023/04/22 13:09:24;;;;;;;7.22;4.80;;;;;;;;;;5107220;27;20054;-69
2023/04/22 13:11:51;;;;;;;8.43;4.47;;;;;;;;;;5105428;27;20039;-69
2023/04/22 13:14:20;;;;;;;6.78;4.60;;;;;;;;;;5113589;27;20056;-69
2023/04/22 13:16:47;;;;;;;6.93;4.80;;;;;;;;;;5108708;27;20048;-69
2023/04/22 13:19:14;;;;;;;7.28;4.88;;;;;;;;;;5112965;27;20051;-69
2023/04/22 13:21:42;;;;;;;7.50;4.88;;;;;;;;;;5108461;27;20801;-69
2023/04/22 13:24:09;;;;;;;7.68;5.10;;;;;;;;;;5112499;27;20051;-69
2023/04/22 13:26:37;;;;;;;8.40;5.00;;;;;;;;;;5109923;27;20051;-69
2023/04/22 13:29:09;;;;;;;6.30;4.63;;;;;;;;;;5101167;27;20108;-69
2023/04/22 13:31:39;;;;;;;7.10;4.90;;;;;;;;;;5103519;27;20062;-69
2023/04/22 13:34:06;;;;;;;8.55;5.47;;;;;;;;;;5107598;27;20055;-69
2023/04/22 13:36:33;;;;;;;9.18;5.75;;;;;;;;;;5106530;27;20499;-69
2023/04/22 13:39:01;;;;;;;7.20;5.57;;;;;;;;;;5107394;28;20063;-69
2023/04/22 13:41:28;;;;;;;7.43;5.13;;;;;;;;;;5102168;27;20047;-69
2023/04/22 13:43:55;;;;;;;7.32;5.30;;;;;;;;;;5116201;27;20405;-69
2023/04/22 13:46:22;;;;;;;8.07;5.30;;;;;;;;;;5112920;27;20054;-69
2023/04/22 13:48:51;;;;;;;7.50;5.13;;;;;;;;;;5107237;27;20050;-69
2023/04/22 13:51:18;;;;;;;8.00;5.72;;;;;;;;;;5114323;27;20512;-69
2023/04/22 13:53:46;;;;;;;8.63;5.25;;;;;;;;;;5109624;27;20052;-69
2023/04/22 13:56:13;;;;;;;8.55;5.65;;;;;;;;;;5111711;27;20055;-69
2023/04/22 13:58:41;;;;;;;10.18;5.70;;;;;;;;;;5116798;28;20106;-68
2023/04/22 14:01:08;;;;;;;8.88;5.50;;;;;;;;;;5116403;27;20458;-68
2023/04/22 14:03:36;;;;;;;8.95;5.60;;;;;;;;;;5105862;28;20522;-69
2023/04/22 14:06:05;;;;;;;8.32;5.15;;;;;;;;;;5111646;28;20506;-68
2023/04/22 14:08:32;;;;;;;9.00;5.65;;;;;;;;;;5113883;28;20048;-67
2023/04/22 14:11:01;;;;;;;12.80;6.57;;;;;;;;;;5108317;28;20047;-67
2023/04/22 14:13:28;;;;;;;12.30;6.00;;;;;;;;;;5109739;28;20075;-67
2023/04/22 14:15:55;;;;;;;11.82;6.97;;;;;;;;;;5108590;28;20059;-67
2023/04/22 14:18:23;;;;;;;11.15;7.28;;;;;;;;;;5112473;28;20057;-68
2023/04/22 14:20:50;;;;;;;10.88;6.35;;;;;;;;;;5114608;28;20402;-68
2023/04/22 14:23:19;;;;;;;10.50;6.50;;;;;;;;;;5107017;28;20052;-68
2023/04/22 14:25:47;;;;;;;10.13;6.13;;;;;;;;;;5105450;28;20044;-69
2023/04/22 14:28:14;;;;;;;10.73;6.45;;;;;;;;;;5115891;27;20051;-69
2023/04/22 14:30:42;;;;;;;8.45;5.78;;;;;;;;;;5113712;27;20044;-69
2023/04/22 14:33:09;;;;;;;10.85;6.35;;;;;;;;;;5112912;27;20048;-69
2023/04/22 14:35:37;;;;;;;9.95;6.25;;;;;;;;;;5106317;27;20051;-69
2023/04/22 14:38:05;;;;;;;12.07;6.57;;;;;;;;;;5118821;27;20047;-69
2023/04/22 14:40:34;;;;;;;10.02;5.97;;;;;;;;;;5108583;27;20062;-69
2023/04/22 14:43:02;;;;;;;9.95;6.07;;;;;;;;;;5108652;27;20495;-69
2023/04/22 14:45:29;;;;;;;8.60;5.93;;;;;;;;;;5111443;27;20051;-69
2023/04/22 14:47:57;;;;;;;10.32;5.93;;;;;;;;;;5112027;27;20078;-69